Time,TemperatureF,DewpointF,PressureIn,WindDirection,WindDirectionDegrees,WindSpeedMPH,WindSpeedGustMPH,Humidity,HourlyPrecipIn,Conditions,Clouds,dailyrainin,SoftwareType,DateUTC
2013-05-22 00:01:00,44.9,42.7,29.79,WSW,251,2.0,5.0,92,0.02, -RA,-RA,-99.99,VWS V12.07,2013-05-22 07:01:00,
2013-05-22 01:00:00,44.5,42.3,29.78,West,272,2.0,6.0,92,0.07,,OVC032,-99.99,VWS V12.07,2013-05-22 08:00:00,
2013-05-22 02:00:00,44.3,42.4,29.78,SW,227,3.0,3.0,93,0.02, -RA,-RA,-99.99,VWS V12.07,2013-05-22 09:00:00,
2013-05-22 03:01:00,44.3,42.4,29.78,WSW,250,1.0,6.0,93,0.01,,OVC036,-99.99,VWS V12.07,2013-05-22 10:01:00,
2013-05-22 04:01:00,44.3,42.4,29.79,NNW,332,0.0,1.0,93,0.01,,OVC004,-99.99,VWS V12.07,2013-05-22 11:01:00,
2013-05-22 05:01:00,44.2,42.3,29.77,WSW,247,0.0,2.0,93,0.01,,OVC004,-99.99,VWS V12.07,2013-05-22 12:01:00,
2013-05-22 06:00:00,44.2,42.3,29.77,West,274,0.0,2.0,93,0.00,,OVC046,-99.99,VWS V12.07,2013-05-22 13:00:00,
2013-05-22 07:01:00,43.8,41.9,29.77,East,82,2.0,3.0,93,0.01,,OVC014,-99.99,VWS V12.07,2013-05-22 14:01:00,
2013-05-22 08:01:00,43.3,41.4,29.78,North,0,0.0,5.0,93,0.00, BR,,-99.99,VWS V12.07,2013-05-22 15:01:00,
2013-05-22 09:01:00,43.9,42.0,29.79,NNE,13,0.0,2.0,93,0.00, BR,,-99.99,VWS V12.07,2013-05-22 16:01:00,
2013-05-22 10:01:00,44.1,41.7,29.79,North,1,1.0,5.0,91,0.00,,BKN006,-99.99,VWS V12.07,2013-05-22 17:01:00,
2013-05-22 11:01:00,44.5,41.5,29.80,North,0,0.0,3.0,89,0.00,,OVC020,-99.99,VWS V12.07,2013-05-22 18:01:00,
2013-05-22 12:01:00,44.6,41.6,29.79,ENE,59,0.0,5.0,89,0.00,,OVC048,-99.99,VWS V12.07,2013-05-22 19:01:00,
2013-05-22 13:01:00,45.4,42.6,29.81,NNW,333,0.0,3.0,90,0.00,,OVC050,-99.99,VWS V12.07,2013-05-22 20:01:00,
2013-05-22 14:01:00,46.1,42.8,29.82,WNW,292,2.0,3.0,88,0.00,,OVC060,-99.99,VWS V12.07,2013-05-22 21:01:00,
2013-05-22 15:01:00,46.8,43.1,29.82,WSW,247,2.0,6.0,87,0.00,,OVC050,-99.99,VWS V12.07,2013-05-22 22:01:00,
2013-05-22 16:01:00,48.2,44.2,29.82,WSW,247,0.0,3.0,86,0.01, -RA,-RA,-99.99,VWS V12.07,2013-05-22 23:01:00,
2013-05-22 17:00:00,48.5,44.5,29.82,ENE,61,0.0,1.0,86,0.01,,OVC042,-99.99,VWS V12.07,2013-05-23 00:00:00,
2013-05-22 18:01:00,49.6,45.0,29.83,NNE,23,0.0,1.0,84,0.00,,BKN042,-99.99,VWS V12.07,2013-05-23 01:01:00,
2013-05-22 19:01:00,49.6,45.6,29.83,WNW,302,0.0,0.0,86,0.00,,OVC100,-99.99,VWS V12.07,2013-05-23 02:01:00,
2013-05-22 20:01:00,47.9,44.2,29.84,WNW,282,2.0,2.0,87,0.00, -RA,-RA,-99.99,VWS V12.07,2013-05-23 03:01:00,
2013-05-22 21:01:00,47.0,44.2,29.85,West,275,0.0,0.0,90,0.00,,OVC043,-99.99,VWS V12.07,2013-05-23 04:01:00,
2013-05-22 22:01:00,46.4,43.9,29.86,WSW,237,0.0,0.0,91,0.00,,BKN028,-99.99,VWS V12.07,2013-05-23 05:01:00,
2013-05-22 23:00:00,45.7,43.5,29.86,WSW,237,0.0,1.0,92,0.00,,BKN110,-99.99,VWS V12.07,2013-05-23 06:00:00,